sensor_id;sensor_type;location;lat;lon;timestamp;temperature;humidity
54558;DHT22;40452;50.080;20.040;2022-12-11T00:01:20;19.90;36.50
54558;DHT22;40452;50.080;20.040;2022-12-11T00:03:46;19.90;36.50
54558;DHT22;40452;50.080;20.040;2022-12-11T00:06:14;19.90;36.60
54558;DHT22;40452;50.080;20.040;2022-12-11T00:08:40;19.90;36.50
54558;DHT22;40452;50.080;20.040;2022-12-11T00:11:14;19.90;36.50
54558;DHT22;40452;50.080;20.040;2022-12-11T00:13:41;19.90;36.60
54558;DHT22;40452;50.080;20.040;2022-12-11T00:16:07;19.90;36.50
54558;DHT22;40452;50.080;20.040;2022-12-11T00:18:32;19.90;36.60
54558;DHT22;40452;50.080;20.040;2022-12-11T00:21:10;19.90;36.40
54558;DHT22;40452;50.080;20.040;2022-12-11T00:23:36;19.90;36.60
54558;DHT22;40452;50.080;20.040;2022-12-11T00:26:07;19.80;36.30
54558;DHT22;40452;50.080;20.040;2022-12-11T00:28:33;19.80;36.70
54558;DHT22;40452;50.080;20.040;2022-12-11T00:31:06;19.80;36.40
54558;DHT22;40452;50.080;20.040;2022-12-11T00:33:32;19.80;36.60
54558;DHT22;40452;50.080;20.040;2022-12-11T00:35:58;19.80;36.50
54558;DHT22;40452;50.080;20.040;2022-12-11T00:38:23;19.80;36.30
54558;DHT22;40452;50.080;20.040;2022-12-11T00:40:49;19.80;36.50
54558;DHT22;40452;50.080;20.040;2022-12-11T00:43:15;19.80;36.40
54558;DHT22;40452;50.080;20.040;2022-12-11T00:45:43;19.80;36.30
54558;DHT22;40452;50.080;20.040;2022-12-11T00:48:09;19.80;36.40
54558;DHT22;40452;50.080;20.040;2022-12-11T00:50:36;19.80;36.50
54558;DHT22;40452;50.080;20.040;2022-12-11T00:53:02;19.80;36.40
54558;DHT22;40452;50.080;20.040;2022-12-11T00:55:28;19.80;36.50
54558;DHT22;40452;50.080;20.040;2022-12-11T00:57:54;19.80;36.30
54558;DHT22;40452;50.080;20.040;2022-12-11T01:00:21;19.80;36.20
54558;DHT22;40452;50.080;20.040;2022-12-11T01:02:47;19.80;36.30
54558;DHT22;40452;50.080;20.040;2022-12-11T01:05:13;19.80;36.30
54558;DHT22;40452;50.080;20.040;2022-12-11T01:07:38;19.80;36.30
54558;DHT22;40452;50.080;20.040;2022-12-11T01:10:04;19.80;36.30
54558;DHT22;40452;50.080;20.040;2022-12-11T01:12:56;19.80;36.10
54558;DHT22;40452;50.080;20.040;2022-12-11T01:15:25;19.80;36.20
54558;DHT22;40452;50.080;20.040;2022-12-11T01:17:51;19.80;36.20
54558;DHT22;40452;50.080;20.040;2022-12-11T01:20:18;19.80;36.20
54558;DHT22;40452;50.080;20.040;2022-12-11T07:23:59;19.60;36.30
54558;DHT22;40452;50.080;20.040;2022-12-11T07:26:25;19.90;36.20
54558;DHT22;40452;50.080;20.040;2022-12-11T07:28:51;19.90;36.00
54558;DHT22;40452;50.080;20.040;2022-12-11T07:31:20;19.90;36.00
54558;DHT22;40452;50.080;20.040;2022-12-11T07:33:46;19.90;36.00
54558;DHT22;40452;50.080;20.040;2022-12-11T07:36:13;19.90;36.10
54558;DHT22;40452;50.080;20.040;2022-12-11T07:38:39;19.90;36.20
54558;DHT22;40452;50.080;20.040;2022-12-11T07:41:07;19.90;36.20
54558;DHT22;40452;50.080;20.040;2022-12-11T07:43:34;19.90;36.20
54558;DHT22;40452;50.080;20.040;2022-12-11T07:46:05;19.90;36.20
54558;DHT22;40452;50.080;20.040;2022-12-11T07:48:31;19.90;36.20
54558;DHT22;40452;50.080;20.040;2022-12-11T07:51:08;19.90;36.20
54558;DHT22;40452;50.080;20.040;2022-12-11T07:53:33;19.90;36.30
54558;DHT22;40452;50.080;20.040;2022-12-11T07:55:59;19.90;36.30
54558;DHT22;40452;50.080;20.040;2022-12-11T07:58:24;19.90;36.40
54558;DHT22;40452;50.080;20.040;2022-12-11T08:00:50;19.90;36.50
54558;DHT22;40452;50.080;20.040;2022-12-11T08:03:16;19.90;36.50
54558;DHT22;40452;50.080;20.040;2022-12-11T08:05:47;19.90;36.50
54558;DHT22;40452;50.080;20.040;2022-12-11T08:08:13;19.90;36.40
54558;DHT22;40452;50.080;20.040;2022-12-11T08:10:39;19.90;36.40
54558;DHT22;40452;50.080;20.040;2022-12-11T08:13:04;19.90;36.30
54558;DHT22;40452;50.080;20.040;2022-12-11T08:15:30;19.90;36.40
54558;DHT22;40452;50.080;20.040;2022-12-11T08:17:55;19.90;36.30
54558;DHT22;40452;50.080;20.040;2022-12-11T08:20:21;20.00;36.30
54558;DHT22;40452;50.080;20.040;2022-12-11T08:22:46;19.90;36.30
54558;DHT22;40452;50.080;20.040;2022-12-11T08:25:12;19.90;36.40
54558;DHT22;40452;50.080;20.040;2022-12-11T08:27:37;19.90;36.60
54558;DHT22;40452;50.080;20.040;2022-12-11T08:30:03;20.00;36.60
54558;DHT22;40452;50.080;20.040;2022-12-11T08:32:29;20.00;36.50
54558;DHT22;40452;50.080;20.040;2022-12-11T08:34:54;20.10;36.70
54558;DHT22;40452;50.080;20.040;2022-12-11T08:37:20;20.10;36.80
54558;DHT22;40452;50.080;20.040;2022-12-11T08:39:45;20.10;36.80
54558;DHT22;40452;50.080;20.040;2022-12-11T08:42:11;20.10;36.90
54558;DHT22;40452;50.080;20.040;2022-12-11T08:44:37;20.10;36.60
54558;DHT22;40452;50.080;20.040;2022-12-11T08:47:02;20.00;36.60
54558;DHT22;40452;50.080;20.040;2022-12-11T08:49:28;20.10;36.70
54558;DHT22;40452;50.080;20.040;2022-12-11T08:51:54;20.00;36.80
54558;DHT22;40452;50.080;20.040;2022-12-11T08:54:20;20.10;36.70
54558;DHT22;40452;50.080;20.040;2022-12-11T08:56:45;20.00;36.90
54558;DHT22;40452;50.080;20.040;2022-12-11T08:59:11;20.00;36.80
54558;DHT22;40452;50.080;20.040;2022-12-11T09:01:36;20.00;36.70
54558;DHT22;40452;50.080;20.040;2022-12-11T09:04:02;20.00;36.70
54558;DHT22;40452;50.080;20.040;2022-12-11T09:06:29;20.00;36.70
54558;DHT22;40452;50.080;20.040;2022-12-11T09:08:57;20.00;36.80
54558;DHT22;40452;50.080;20.040;2022-12-11T09:11:28;20.00;36.70
54558;DHT22;40452;50.080;20.040;2022-12-11T09:13:54;20.00;36.70
54558;DHT22;40452;50.080;20.040;2022-12-11T09:16:22;20.00;36.90
54558;DHT22;40452;50.080;20.040;2022-12-11T09:18:49;20.00;36.80
54558;DHT22;40452;50.080;20.040;2022-12-11T09:21:17;20.00;36.80
54558;DHT22;40452;50.080;20.040;2022-12-11T09:23:43;20.00;36.70
54558;DHT22;40452;50.080;20.040;2022-12-11T09:26:12;20.00;36.50
54558;DHT22;40452;50.080;20.040;2022-12-11T09:28:38;20.00;36.50
54558;DHT22;40452;50.080;20.040;2022-12-11T09:31:41;20.00;36.60
54558;DHT22;40452;50.080;20.040;2022-12-11T09:34:03;20.00;36.50
54558;DHT22;40452;50.080;20.040;2022-12-11T09:36:30;20.00;36.50
54558;DHT22;40452;50.080;20.040;2022-12-11T09:39:00;20.00;36.40
54558;DHT22;40452;50.080;20.040;2022-12-11T09:42:08;20.00;36.50
54558;DHT22;40452;50.080;20.040;2022-12-11T09:44:40;20.00;36.50
54558;DHT22;40452;50.080;20.040;2022-12-11T09:50:20;20.00;36.40
54558;DHT22;40452;50.080;20.040;2022-12-11T09:55:28;20.00;36.50
54558;DHT22;40452;50.080;20.040;2022-12-11T10:00:48;20.00;36.40
54558;DHT22;40452;50.080;20.040;2022-12-11T10:09:25;20.00;36.50
54558;DHT22;40452;50.080;20.040;2022-12-11T10:14:16;20.00;36.50
54558;DHT22;40452;50.080;20.040;2022-12-11T10:16:48;20.00;36.40
54558;DHT22;40452;50.080;20.040;2022-12-11T10:19:21;20.00;36.30
54558;DHT22;40452;50.080;20.040;2022-12-11T10:21:48;20.00;36.40
54558;DHT22;40452;50.080;20.040;2022-12-11T10:27:23;20.00;36.50
54558;DHT22;40452;50.080;20.040;2022-12-11T10:30:18;20.00;36.40
54558;DHT22;40452;50.080;20.040;2022-12-11T10:35:27;20.00;36.40
54558;DHT22;40452;50.080;20.040;2022-12-11T10:38:12;20.00;36.40
54558;DHT22;40452;50.080;20.040;2022-12-11T10:40:51;20.00;36.50
54558;DHT22;40452;50.080;20.040;2022-12-11T10:43:17;20.00;36.50
54558;DHT22;40452;50.080;20.040;2022-12-11T10:45:51;20.00;36.50
54558;DHT22;40452;50.080;20.040;2022-12-11T10:48:18;20.00;36.40
54558;DHT22;40452;50.080;20.040;2022-12-11T10:50:55;20.00;36.40
54558;DHT22;40452;50.080;20.040;2022-12-11T10:53:21;20.00;36.50
54558;DHT22;40452;50.080;20.040;2022-12-11T10:55:48;20.00;36.30
54558;DHT22;40452;50.080;20.040;2022-12-11T10:58:21;20.00;36.40
54558;DHT22;40452;50.080;20.040;2022-12-11T11:04:14;20.10;36.30
54558;DHT22;40452;50.080;20.040;2022-12-11T11:06:43;20.10;36.20
54558;DHT22;40452;50.080;20.040;2022-12-11T11:09:28;20.10;36.40
54558;DHT22;40452;50.080;20.040;2022-12-11T11:11:54;20.10;36.40
54558;DHT22;40452;50.080;20.040;2022-12-11T11:14:20;20.10;36.60
54558;DHT22;40452;50.080;20.040;2022-12-11T11:16:49;20.10;36.70
54558;DHT22;40452;50.080;20.040;2022-12-11T11:19:30;20.10;36.60
54558;DHT22;40452;50.080;20.040;2022-12-11T11:21:59;20.10;36.50
54558;DHT22;40452;50.080;20.040;2022-12-11T11:24:28;20.10;36.60
54558;DHT22;40452;50.080;20.040;2022-12-11T11:26:55;20.00;36.70
54558;DHT22;40452;50.080;20.040;2022-12-11T11:29:26;20.10;36.50
54558;DHT22;40452;50.080;20.040;2022-12-11T11:31:53;20.10;36.30
54558;DHT22;40452;50.080;20.040;2022-12-11T11:34:19;20.10;36.70
54558;DHT22;40452;50.080;20.040;2022-12-11T11:36:57;20.10;37.10
54558;DHT22;40452;50.080;20.040;2022-12-11T11:39:34;20.10;37.70
54558;DHT22;40452;50.080;20.040;2022-12-11T11:42:14;20.10;37.30
54558;DHT22;40452;50.080;20.040;2022-12-11T11:44:52;20.20;37.50
54558;DHT22;40452;50.080;20.040;2022-12-11T11:47:27;20.10;37.30
54558;DHT22;40452;50.080;20.040;2022-12-11T11:53:08;20.10;38.30
54558;DHT22;40452;50.080;20.040;2022-12-11T11:55:48;20.10;37.90
54558;DHT22;40452;50.080;20.040;2022-12-11T11:58:20;20.10;37.80
54558;DHT22;40452;50.080;20.040;2022-12-11T12:00:53;20.20;38.10
54558;DHT22;40452;50.080;20.040;2022-12-11T12:03:21;20.20;38.30
54558;DHT22;40452;50.080;20.040;2022-12-11T12:05:53;20.20;38.20
54558;DHT22;40452;50.080;20.040;2022-12-11T12:08:45;20.30;38.10
54558;DHT22;40452;50.080;20.040;2022-12-11T12:15:00;20.30;37.90
54558;DHT22;40452;50.080;20.040;2022-12-11T12:17:19;20.30;37.90
54558;DHT22;40452;50.080;20.040;2022-12-11T12:19:51;20.30;37.60
54558;DHT22;40452;50.080;20.040;2022-12-11T12:22:34;20.30;37.40
54558;DHT22;40452;50.080;20.040;2022-12-11T12:28:30;20.20;37.30
54558;DHT22;40452;50.080;20.040;2022-12-11T12:34:01;20.20;36.90
54558;DHT22;40452;50.080;20.040;2022-12-11T12:36:45;20.20;36.80
54558;DHT22;40452;50.080;20.040;2022-12-11T12:39:45;20.20;36.70
54558;DHT22;40452;50.080;20.040;2022-12-11T12:42:38;20.30;36.70
54558;DHT22;40452;50.080;20.040;2022-12-11T12:47:42;20.30;36.80
54558;DHT22;40452;50.080;20.040;2022-12-11T12:50:17;20.30;36.70
54558;DHT22;40452;50.080;20.040;2022-12-11T12:52:43;20.20;36.50
54558;DHT22;40452;50.080;20.040;2022-12-11T12:57:40;20.20;36.30
54558;DHT22;40452;50.080;20.040;2022-12-11T13:00:07;20.20;36.20
54558;DHT22;40452;50.080;20.040;2022-12-11T13:02:57;20.30;36.10
54558;DHT22;40452;50.080;20.040;2022-12-11T13:05:25;20.20;36.30
54558;DHT22;40452;50.080;20.040;2022-12-11T13:07:55;20.30;36.70
54558;DHT22;40452;50.080;20.040;2022-12-11T13:10:29;20.30;37.00
54558;DHT22;40452;50.080;20.040;2022-12-11T13:12:55;20.30;37.00
54558;DHT22;40452;50.080;20.040;2022-12-11T13:15:37;20.20;37.00
54558;DHT22;40452;50.080;20.040;2022-12-11T13:18:35;20.30;37.10
54558;DHT22;40452;50.080;20.040;2022-12-11T13:21:03;20.30;37.30
54558;DHT22;40452;50.080;20.040;2022-12-11T13:23:48;20.30;37.10
54558;DHT22;40452;50.080;20.040;2022-12-11T13:26:30;20.30;37.10
54558;DHT22;40452;50.080;20.040;2022-12-11T13:28:56;20.30;37.10
54558;DHT22;40452;50.080;20.040;2022-12-11T13:31:39;20.30;37.10
54558;DHT22;40452;50.080;20.040;2022-12-11T13:34:19;20.30;37.10
54558;DHT22;40452;50.080;20.040;2022-12-11T13:36:50;20.30;37.00
54558;DHT22;40452;50.080;20.040;2022-12-11T13:39:23;20.30;36.90
54558;DHT22;40452;50.080;20.040;2022-12-11T13:42:07;20.20;37.10
54558;DHT22;40452;50.080;20.040;2022-12-11T13:44:46;20.20;37.10
54558;DHT22;40452;50.080;20.040;2022-12-11T13:47:15;20.20;37.20
54558;DHT22;40452;50.080;20.040;2022-12-11T13:49:43;20.20;37.80
54558;DHT22;40452;50.080;20.040;2022-12-11T13:52:18;20.20;37.20
54558;DHT22;40452;50.080;20.040;2022-12-11T13:54:50;20.20;37.10
54558;DHT22;40452;50.080;20.040;2022-12-11T13:57:17;20.20;37.10
54558;DHT22;40452;50.080;20.040;2022-12-11T13:59:48;20.20;37.20
54558;DHT22;40452;50.080;20.040;2022-12-11T14:04:57;20.20;37.10
54558;DHT22;40452;50.080;20.040;2022-12-11T14:07:27;20.20;37.10
54558;DHT22;40452;50.080;20.040;2022-12-11T14:09:59;20.20;36.90
54558;DHT22;40452;50.080;20.040;2022-12-11T14:12:27;20.20;36.90
54558;DHT22;40452;50.080;20.040;2022-12-11T14:14:55;20.20;36.70
54558;DHT22;40452;50.080;20.040;2022-12-11T14:17:26;20.20;36.60
54558;DHT22;40452;50.080;20.040;2022-12-11T14:19:53;20.20;36.50
54558;DHT22;40452;50.080;20.040;2022-12-11T14:22:24;20.20;36.50
54558;DHT22;40452;50.080;20.040;2022-12-11T14:24:55;20.30;36.40
54558;DHT22;40452;50.080;20.040;2022-12-11T14:27:22;20.20;36.40
54558;DHT22;40452;50.080;20.040;2022-12-11T14:29:48;20.20;37.00
54558;DHT22;40452;50.080;20.040;2022-12-11T14:32:35;20.20;38.20
54558;DHT22;40452;50.080;20.040;2022-12-11T14:35:05;20.20;37.90
54558;DHT22;40452;50.080;20.040;2022-12-11T14:37:35;20.20;38.20
54558;DHT22;40452;50.080;20.040;2022-12-11T14:40:06;20.20;38.10
54558;DHT22;40452;50.080;20.040;2022-12-11T14:42:47;20.10;37.20
54558;DHT22;40452;50.080;20.040;2022-12-11T14:45:30;20.20;37.60
54558;DHT22;40452;50.080;20.040;2022-12-11T14:47:59;20.20;37.60
54558;DHT22;40452;50.080;20.040;2022-12-11T14:50:35;20.20;37.50
54558;DHT22;40452;50.080;20.040;2022-12-11T14:53:07;20.20;37.20
54558;DHT22;40452;50.080;20.040;2022-12-11T14:55:34;20.20;37.10
54558;DHT22;40452;50.080;20.040;2022-12-11T14:58:05;20.20;37.10
54558;DHT22;40452;50.080;20.040;2022-12-11T15:00:36;20.20;36.90
54558;DHT22;40452;50.080;20.040;2022-12-11T15:03:29;20.20;36.90
54558;DHT22;40452;50.080;20.040;2022-12-11T15:05:55;20.20;36.80
54558;DHT22;40452;50.080;20.040;2022-12-11T15:08:24;20.20;36.80
54558;DHT22;40452;50.080;20.040;2022-12-11T15:11:12;20.20;37.00
54558;DHT22;40452;50.080;20.040;2022-12-11T15:13:57;20.20;37.00
54558;DHT22;40452;50.080;20.040;2022-12-11T15:16:24;20.20;37.10
54558;DHT22;40452;50.080;20.040;2022-12-11T15:18:52;20.20;37.00
54558;DHT22;40452;50.080;20.040;2022-12-11T15:21:30;20.20;37.10
54558;DHT22;40452;50.080;20.040;2022-12-11T15:23:58;20.20;37.20
54558;DHT22;40452;50.080;20.040;2022-12-11T15:26:35;20.20;37.30
54558;DHT22;40452;50.080;20.040;2022-12-11T15:29:04;20.20;36.70
54558;DHT22;40452;50.080;20.040;2022-12-11T15:31:32;20.20;36.70
54558;DHT22;40452;50.080;20.040;2022-12-11T15:34:00;20.20;36.80
54558;DHT22;40452;50.080;20.040;2022-12-11T15:36:33;20.20;36.50
54558;DHT22;40452;50.080;20.040;2022-12-11T15:39:00;20.30;37.00
54558;DHT22;40452;50.080;20.040;2022-12-11T15:41:27;20.30;37.50
54558;DHT22;40452;50.080;20.040;2022-12-11T15:44:00;20.30;37.10
54558;DHT22;40452;50.080;20.040;2022-12-11T15:46:26;20.40;37.70
54558;DHT22;40452;50.080;20.040;2022-12-11T15:48:52;20.40;37.20
54558;DHT22;40452;50.080;20.040;2022-12-11T15:51:18;20.40;38.00
54558;DHT22;40452;50.080;20.040;2022-12-11T15:53:43;20.50;37.40
54558;DHT22;40452;50.080;20.040;2022-12-11T15:56:12;20.40;37.30
54558;DHT22;40452;50.080;20.040;2022-12-11T15:58:39;20.40;37.20
54558;DHT22;40452;50.080;20.040;2022-12-11T16:01:05;20.50;37.00
54558;DHT22;40452;50.080;20.040;2022-12-11T16:03:31;20.50;37.20
54558;DHT22;40452;50.080;20.040;2022-12-11T16:05:56;20.50;36.90
54558;DHT22;40452;50.080;20.040;2022-12-11T16:08:23;20.50;37.00
54558;DHT22;40452;50.080;20.040;2022-12-11T16:10:51;20.50;37.00
54558;DHT22;40452;50.080;20.040;2022-12-11T16:13:17;20.50;37.00
54558;DHT22;40452;50.080;20.040;2022-12-11T16:15:44;20.50;37.00
54558;DHT22;40452;50.080;20.040;2022-12-11T16:18:12;20.50;36.90
54558;DHT22;40452;50.080;20.040;2022-12-11T16:20:41;20.50;37.00
54558;DHT22;40452;50.080;20.040;2022-12-11T16:23:07;20.50;36.90
54558;DHT22;40452;50.080;20.040;2022-12-11T16:25:36;20.50;36.70
54558;DHT22;40452;50.080;20.040;2022-12-11T16:28:02;20.60;36.80
54558;DHT22;40452;50.080;20.040;2022-12-11T16:30:28;20.60;36.90
54558;DHT22;40452;50.080;20.040;2022-12-11T16:32:54;20.60;36.90
54558;DHT22;40452;50.080;20.040;2022-12-11T16:35:20;20.60;37.00
54558;DHT22;40452;50.080;20.040;2022-12-11T16:37:48;20.60;37.20
54558;DHT22;40452;50.080;20.040;2022-12-11T16:40:15;20.60;37.80
54558;DHT22;40452;50.080;20.040;2022-12-11T16:42:40;20.60;38.00
54558;DHT22;40452;50.080;20.040;2022-12-11T16:45:10;20.60;37.80
54558;DHT22;40452;50.080;20.040;2022-12-11T16:47:36;20.70;38.10
54558;DHT22;40452;50.080;20.040;2022-12-11T16:50:02;20.70;38.00
54558;DHT22;40452;50.080;20.040;2022-12-11T16:52:28;20.80;38.00
54558;DHT22;40452;50.080;20.040;2022-12-11T16:54:55;20.70;38.20
54558;DHT22;40452;50.080;20.040;2022-12-11T16:57:20;20.70;38.00
54558;DHT22;40452;50.080;20.040;2022-12-11T16:59:46;20.80;38.10
54558;DHT22;40452;50.080;20.040;2022-12-11T17:02:12;20.70;37.80
54558;DHT22;40452;50.080;20.040;2022-12-11T17:04:38;20.70;37.40
54558;DHT22;40452;50.080;20.040;2022-12-11T17:07:04;20.70;37.20
54558;DHT22;40452;50.080;20.040;2022-12-11T17:09:30;20.70;37.20
54558;DHT22;40452;50.080;20.040;2022-12-11T17:11:56;20.70;37.10
54558;DHT22;40452;50.080;20.040;2022-12-11T17:14:22;20.70;37.10
54558;DHT22;40452;50.080;20.040;2022-12-11T17:16:48;20.70;36.90
54558;DHT22;40452;50.080;20.040;2022-12-11T17:19:14;20.60;36.70
54558;DHT22;40452;50.080;20.040;2022-12-11T17:21:39;20.70;36.80
54558;DHT22;40452;50.080;20.040;2022-12-11T17:24:06;20.70;36.70
54558;DHT22;40452;50.080;20.040;2022-12-11T17:26:32;20.70;36.70
54558;DHT22;40452;50.080;20.040;2022-12-11T17:28:57;20.70;36.50
54558;DHT22;40452;50.080;20.040;2022-12-11T17:31:23;20.70;36.40
54558;DHT22;40452;50.080;20.040;2022-12-11T17:33:49;20.80;36.60
54558;DHT22;40452;50.080;20.040;2022-12-11T17:36:17;20.80;36.70
54558;DHT22;40452;50.080;20.040;2022-12-11T17:38:43;20.80;36.60
54558;DHT22;40452;50.080;20.040;2022-12-11T17:41:10;20.80;36.40
54558;DHT22;40452;50.080;20.040;2022-12-11T17:43:36;20.80;36.30
54558;DHT22;40452;50.080;20.040;2022-12-11T17:46:02;20.70;36.10
54558;DHT22;40452;50.080;20.040;2022-12-11T17:48:28;20.70;36.00
54558;DHT22;40452;50.080;20.040;2022-12-11T17:50:54;20.70;36.00
54558;DHT22;40452;50.080;20.040;2022-12-11T17:53:20;20.70;35.90
54558;DHT22;40452;50.080;20.040;2022-12-11T17:55:47;20.60;35.80
54558;DHT22;40452;50.080;20.040;2022-12-11T17:58:18;20.60;36.50
54558;DHT22;40452;50.080;20.040;2022-12-11T18:00:46;20.60;35.60
54558;DHT22;40452;50.080;20.040;2022-12-11T18:03:12;20.60;36.00
54558;DHT22;40452;50.080;20.040;2022-12-11T18:05:42;20.60;35.80
54558;DHT22;40452;50.080;20.040;2022-12-11T18:08:11;20.60;35.60
54558;DHT22;40452;50.080;20.040;2022-12-11T18:10:37;20.60;35.70
54558;DHT22;40452;50.080;20.040;2022-12-11T18:13:02;20.60;35.70
54558;DHT22;40452;50.080;20.040;2022-12-11T18:15:28;20.50;36.00
54558;DHT22;40452;50.080;20.040;2022-12-11T18:17:56;20.60;36.20
54558;DHT22;40452;50.080;20.040;2022-12-11T18:20:22;20.60;36.20
54558;DHT22;40452;50.080;20.040;2022-12-11T18:22:48;20.60;36.00
54558;DHT22;40452;50.080;20.040;2022-12-11T18:25:13;20.60;35.90
54558;DHT22;40452;50.080;20.040;2022-12-11T18:27:39;20.60;35.80
54558;DHT22;40452;50.080;20.040;2022-12-11T18:30:05;20.60;35.80
54558;DHT22;40452;50.080;20.040;2022-12-11T18:32:31;20.60;35.60
54558;DHT22;40452;50.080;20.040;2022-12-11T18:34:56;20.60;35.60
54558;DHT22;40452;50.080;20.040;2022-12-11T18:37:22;20.60;35.60
54558;DHT22;40452;50.080;20.040;2022-12-11T18:39:47;20.70;35.70
54558;DHT22;40452;50.080;20.040;2022-12-11T18:42:13;20.70;36.00
54558;DHT22;40452;50.080;20.040;2022-12-11T18:44:39;20.60;35.70
54558;DHT22;40452;50.080;20.040;2022-12-11T18:47:04;20.60;35.80
54558;DHT22;40452;50.080;20.040;2022-12-11T18:49:31;20.60;35.90
54558;DHT22;40452;50.080;20.040;2022-12-11T18:51:57;20.60;35.70
54558;DHT22;40452;50.080;20.040;2022-12-11T18:54:22;20.60;35.70
54558;DHT22;40452;50.080;20.040;2022-12-11T18:56:48;20.60;35.60
54558;DHT22;40452;50.080;20.040;2022-12-11T18:59:13;20.50;35.60
54558;DHT22;40452;50.080;20.040;2022-12-11T19:01:39;20.60;35.60
54558;DHT22;40452;50.080;20.040;2022-12-11T19:04:05;20.50;35.50
54558;DHT22;40452;50.080;20.040;2022-12-11T19:06:31;20.50;35.50
54558;DHT22;40452;50.080;20.040;2022-12-11T19:08:58;20.60;35.60
54558;DHT22;40452;50.080;20.040;2022-12-11T19:11:25;20.60;35.60
54558;DHT22;40452;50.080;20.040;2022-12-11T19:13:52;20.50;35.90
54558;DHT22;40452;50.080;20.040;2022-12-11T19:16:23;20.50;35.70
54558;DHT22;40452;50.080;20.040;2022-12-11T19:18:49;20.50;35.70
54558;DHT22;40452;50.080;20.040;2022-12-11T19:21:15;20.50;35.60
54558;DHT22;40452;50.080;20.040;2022-12-11T19:23:42;20.50;35.50
54558;DHT22;40452;50.080;20.040;2022-12-11T19:26:10;20.50;35.50
54558;DHT22;40452;50.080;20.040;2022-12-11T19:28:36;20.60;35.60
54558;DHT22;40452;50.080;20.040;2022-12-11T19:31:02;20.60;35.60
54558;DHT22;40452;50.080;20.040;2022-12-11T19:33:27;20.60;35.60
54558;DHT22;40452;50.080;20.040;2022-12-11T19:36:04;20.60;35.60
54558;DHT22;40452;50.080;20.040;2022-12-11T19:38:31;20.60;35.70
54558;DHT22;40452;50.080;20.040;2022-12-11T19:40:57;20.60;35.60
54558;DHT22;40452;50.080;20.040;2022-12-11T19:43:23;20.60;35.60
54558;DHT22;40452;50.080;20.040;2022-12-11T19:45:48;20.60;35.60
54558;DHT22;40452;50.080;20.040;2022-12-11T19:48:14;20.60;35.60
54558;DHT22;40452;50.080;20.040;2022-12-11T19:50:39;20.60;35.60
54558;DHT22;40452;50.080;20.040;2022-12-11T19:53:05;20.60;35.60
54558;DHT22;40452;50.080;20.040;2022-12-11T19:55:31;20.60;35.60
54558;DHT22;40452;50.080;20.040;2022-12-11T19:57:57;20.60;35.60
54558;DHT22;40452;50.080;20.040;2022-12-11T20:00:22;20.60;35.60
54558;DHT22;40452;50.080;20.040;2022-12-11T20:02:49;20.60;35.60
54558;DHT22;40452;50.080;20.040;2022-12-11T20:05:15;20.60;36.30
54558;DHT22;40452;50.080;20.040;2022-12-11T20:07:41;20.60;35.70
54558;DHT22;40452;50.080;20.040;2022-12-11T20:10:09;20.60;35.80
54558;DHT22;40452;50.080;20.040;2022-12-11T20:12:35;20.60;35.60
54558;DHT22;40452;50.080;20.040;2022-12-11T20:15:02;20.60;35.70
54558;DHT22;40452;50.080;20.040;2022-12-11T20:17:28;20.60;35.60
54558;DHT22;40452;50.080;20.040;2022-12-11T20:19:54;20.60;35.60
54558;DHT22;40452;50.080;20.040;2022-12-11T20:22:20;20.60;35.60
54558;DHT22;40452;50.080;20.040;2022-12-11T20:24:45;20.60;35.60
54558;DHT22;40452;50.080;20.040;2022-12-11T20:27:11;20.60;35.60
54558;DHT22;40452;50.080;20.040;2022-12-11T20:29:37;20.60;35.60
54558;DHT22;40452;50.080;20.040;2022-12-11T20:32:03;20.60;35.60
54558;DHT22;40452;50.080;20.040;2022-12-11T20:34:29;20.60;35.60
54558;DHT22;40452;50.080;20.040;2022-12-11T20:36:54;20.60;35.80
54558;DHT22;40452;50.080;20.040;2022-12-11T20:39:20;20.60;35.60
54558;DHT22;40452;50.080;20.040;2022-12-11T20:41:46;20.60;35.60
54558;DHT22;40452;50.080;20.040;2022-12-11T20:44:11;20.60;35.30
54558;DHT22;40452;50.080;20.040;2022-12-11T20:46:37;20.60;35.60
54558;DHT22;40452;50.080;20.040;2022-12-11T20:49:03;20.60;35.90
54558;DHT22;40452;50.080;20.040;2022-12-11T20:51:28;20.60;35.80
54558;DHT22;40452;50.080;20.040;2022-12-11T20:53:54;20.60;35.60
54558;DHT22;40452;50.080;20.040;2022-12-11T20:56:25;20.60;35.60
54558;DHT22;40452;50.080;20.040;2022-12-11T20:58:51;20.50;35.60
54558;DHT22;40452;50.080;20.040;2022-12-11T21:01:20;20.60;35.90
54558;DHT22;40452;50.080;20.040;2022-12-11T21:03:46;20.60;35.70
54558;DHT22;40452;50.080;20.040;2022-12-11T21:06:23;20.60;35.80
54558;DHT22;40452;50.080;20.040;2022-12-11T21:08:56;20.60;36.30
54558;DHT22;40452;50.080;20.040;2022-12-11T21:11:23;20.60;36.20
54558;DHT22;40452;50.080;20.040;2022-12-11T21:13:49;20.70;36.40
54558;DHT22;40452;50.080;20.040;2022-12-11T21:16:15;20.60;36.30
54558;DHT22;40452;50.080;20.040;2022-12-11T21:18:41;20.60;36.40
54558;DHT22;40452;50.080;20.040;2022-12-11T21:21:08;20.60;36.40
54558;DHT22;40452;50.080;20.040;2022-12-11T21:23:34;20.60;36.50
54558;DHT22;40452;50.080;20.040;2022-12-11T21:26:00;20.60;36.50
54558;DHT22;40452;50.080;20.040;2022-12-11T21:28:25;20.60;36.30
54558;DHT22;40452;50.080;20.040;2022-12-11T21:30:51;20.70;36.30
54558;DHT22;40452;50.080;20.040;2022-12-11T21:33:16;20.60;36.30
54558;DHT22;40452;50.080;20.040;2022-12-11T21:35:42;20.70;36.20
54558;DHT22;40452;50.080;20.040;2022-12-11T21:38:07;20.70;36.20
54558;DHT22;40452;50.080;20.040;2022-12-11T21:40:34;20.70;36.10
54558;DHT22;40452;50.080;20.040;2022-12-11T21:42:59;20.60;35.40
54558;DHT22;40452;50.080;20.040;2022-12-11T21:45:25;20.60;35.00
54558;DHT22;40452;50.080;20.040;2022-12-11T21:47:51;20.70;34.60
54558;DHT22;40452;50.080;20.040;2022-12-11T21:50:17;20.70;34.60
54558;DHT22;40452;50.080;20.040;2022-12-11T21:52:42;20.60;34.40
54558;DHT22;40452;50.080;20.040;2022-12-11T21:55:10;20.70;34.40
54558;DHT22;40452;50.080;20.040;2022-12-11T21:57:35;20.60;34.50
54558;DHT22;40452;50.080;20.040;2022-12-11T22:00:02;20.60;34.20
54558;DHT22;40452;50.080;20.040;2022-12-11T22:02:28;20.60;34.10
54558;DHT22;40452;50.080;20.040;2022-12-11T22:04:54;20.60;34.00
54558;DHT22;40452;50.080;20.040;2022-12-11T22:07:19;20.60;34.00
54558;DHT22;40452;50.080;20.040;2022-12-11T22:09:45;20.60;33.90
54558;DHT22;40452;50.080;20.040;2022-12-11T22:12:20;20.60;33.80
54558;DHT22;40452;50.080;20.040;2022-12-11T22:14:46;20.60;33.80